sensor_id;sensor_type;location;lat;lon;timestamp;pressure;altitude;pressure_sealevel;temperature;humidity
14689;BME280;7432;48.728;9.154;2022-12-29T00:01:23;96183.13;;;7.33;79.04
14689;BME280;7432;48.728;9.154;2022-12-29T00:03:50;96180.94;;;7.38;79.20
14689;BME280;7432;48.728;9.154;2022-12-29T00:06:16;96177.41;;;7.39;79.44
14689;BME280;7432;48.728;9.154;2022-12-29T00:08:42;96179.19;;;7.39;80.08
14689;BME280;7432;48.728;9.154;2022-12-29T00:11:11;96180.03;;;7.47;79.17
14689;BME280;7432;48.728;9.154;2022-12-29T00:13:38;96171.09;;;7.51;78.71
14689;BME280;7432;48.728;9.154;2022-12-29T00:16:24;96170.50;;;7.57;78.62
14689;BME280;7432;48.728;9.154;2022-12-29T00:18:51;96159.00;;;7.61;79.14
14689;BME280;7432;48.728;9.154;2022-12-29T00:21:19;96156.16;;;7.64;78.13
14689;BME280;7432;48.728;9.154;2022-12-29T00:24:03;96150.88;;;7.66;78.20
14689;BME280;7432;48.728;9.154;2022-12-29T00:26:47;96153.34;;;7.75;77.04
14689;BME280;7432;48.728;9.154;2022-12-29T00:29:32;96154.50;;;7.81;77.87
14689;BME280;7432;48.728;9.154;2022-12-29T00:32:17;96151.13;;;7.81;77.66
14689;BME280;7432;48.728;9.154;2022-12-29T00:35:01;96154.19;;;7.84;76.76
14689;BME280;7432;48.728;9.154;2022-12-29T00:37:37;96150.66;;;7.85;76.87
14689;BME280;7432;48.728;9.154;2022-12-29T00:40:23;96148.66;;;7.97;76.41
14689;BME280;7432;48.728;9.154;2022-12-29T00:43:07;96146.22;;;7.95;76.65
14689;BME280;7432;48.728;9.154;2022-12-29T00:45:59;96150.72;;;7.93;76.80
14689;BME280;7432;48.728;9.154;2022-12-29T00:48:27;96147.00;;;7.88;77.01
14689;BME280;7432;48.728;9.154;2022-12-29T00:51:12;96143.47;;;7.89;76.75
14689;BME280;7432;48.728;9.154;2022-12-29T00:53:38;96137.38;;;7.90;76.98
14689;BME280;7432;48.728;9.154;2022-12-29T00:56:04;96144.16;;;7.99;76.55
14689;BME280;7432;48.728;9.154;2022-12-29T00:58:31;96147.03;;;7.96;77.11
14689;BME280;7432;48.728;9.154;2022-12-29T01:01:01;96152.47;;;7.93;76.83
14689;BME280;7432;48.728;9.154;2022-12-29T01:03:29;96143.81;;;7.94;77.09
14689;BME280;7432;48.728;9.154;2022-12-29T01:05:55;96144.59;;;7.86;76.70
14689;BME280;7432;48.728;9.154;2022-12-29T01:08:22;96148.28;;;7.84;77.35
14689;BME280;7432;48.728;9.154;2022-12-29T01:10:57;96143.81;;;7.94;76.90
14689;BME280;7432;48.728;9.154;2022-12-29T01:13:23;96143.63;;;7.87;77.33
14689;BME280;7432;48.728;9.154;2022-12-29T01:15:50;96156.00;;;7.92;76.35
14689;BME280;7432;48.728;9.154;2022-12-29T01:18:16;96153.22;;;7.85;76.71
14689;BME280;7432;48.728;9.154;2022-12-29T01:20:44;96158.22;;;7.87;76.88
14689;BME280;7432;48.728;9.154;2022-12-29T01:23:10;96156.38;;;7.79;78.06
14689;BME280;7432;48.728;9.154;2022-12-29T01:25:36;96153.34;;;7.75;78.48
14689;BME280;7432;48.728;9.154;2022-12-29T01:28:03;96162.63;;;7.76;78.30
14689;BME280;7432;48.728;9.154;2022-12-29T01:30:30;96159.72;;;7.71;78.89
14689;BME280;7432;48.728;9.154;2022-12-29T01:32:56;96154.59;;;7.71;77.87
14689;BME280;7432;48.728;9.154;2022-12-29T01:35:22;96161.00;;;7.67;79.39
14689;BME280;7432;48.728;9.154;2022-12-29T01:37:50;96161.47;;;7.71;78.93
14689;BME280;7432;48.728;9.154;2022-12-29T01:40:16;96156.34;;;7.71;78.96
14689;BME280;7432;48.728;9.154;2022-12-29T01:42:43;96161.94;;;7.66;78.89
14689;BME280;7432;48.728;9.154;2022-12-29T01:45:10;96148.00;;;7.69;78.97
14689;BME280;7432;48.728;9.154;2022-12-29T01:47:39;96158.91;;;7.71;79.44
14689;BME280;7432;48.728;9.154;2022-12-29T01:50:10;96156.69;;;7.76;78.77
14689;BME280;7432;48.728;9.154;2022-12-29T01:52:53;96153.47;;;7.74;79.57
14689;BME280;7432;48.728;9.154;2022-12-29T01:55:21;96160.41;;;7.82;78.58
14689;BME280;7432;48.728;9.154;2022-12-29T01:57:50;96152.72;;;7.82;79.08
14689;BME280;7432;48.728;9.154;2022-12-29T02:00:18;96151.44;;;7.78;79.35
14689;BME280;7432;48.728;9.154;2022-12-29T02:02:46;96154.50;;;7.81;79.82
14689;BME280;7432;48.728;9.154;2022-12-29T02:05:20;96146.81;;;7.81;79.39
14689;BME280;7432;48.728;9.154;2022-12-29T02:07:51;96151.78;;;7.83;79.05
14689;BME280;7432;48.728;9.154;2022-12-29T02:10:20;96141.81;;;7.80;80.21
14689;BME280;7432;48.728;9.154;2022-12-29T02:12:47;96137.22;;;7.83;78.91
14689;BME280;7432;48.728;9.154;2022-12-29T02:15:14;96140.56;;;7.84;79.08
14689;BME280;7432;48.728;9.154;2022-12-29T02:17:49;96127.25;;;7.80;78.54
14689;BME280;7432;48.728;9.154;2022-12-29T02:20:41;96137.34;;;7.82;79.08
14689;BME280;7432;48.728;9.154;2022-12-29T02:23:44;96131.28;;;7.83;78.26
14689;BME280;7432;48.728;9.154;2022-12-29T02:26:42;96121.97;;;7.82;78.56
14689;BME280;7432;48.728;9.154;2022-12-29T02:29:37;96125.69;;;7.87;77.58
14689;BME280;7432;48.728;9.154;2022-12-29T02:32:11;96131.19;;;7.92;77.96
14689;BME280;7432;48.728;9.154;2022-12-29T02:34:47;96131.81;;;7.94;77.93
14689;BME280;7432;48.728;9.154;2022-12-29T02:37:22;96132.63;;;7.95;77.79
14689;BME280;7432;48.728;9.154;2022-12-29T02:39:55;96130.75;;;8.05;77.73
14689;BME280;7432;48.728;9.154;2022-12-29T02:42:26;96119.69;;;8.04;76.86
14689;BME280;7432;48.728;9.154;2022-12-29T02:45:01;96117.31;;;8.11;77.87
14689;BME280;7432;48.728;9.154;2022-12-29T02:47:35;96113.50;;;8.23;76.37
14689;BME280;7432;48.728;9.154;2022-12-29T02:50:07;96111.16;;;8.29;76.59
14689;BME280;7432;48.728;9.154;2022-12-29T02:52:38;96112.63;;;8.32;76.01
14689;BME280;7432;48.728;9.154;2022-12-29T02:55:06;96110.22;;;8.30;76.83
14689;BME280;7432;48.728;9.154;2022-12-29T02:57:34;96114.38;;;8.31;76.36
14689;BME280;7432;48.728;9.154;2022-12-29T03:00:04;96112.91;;;8.29;76.51
14689;BME280;7432;48.728;9.154;2022-12-29T03:03:11;96122.88;;;8.32;76.33
14689;BME280;7432;48.728;9.154;2022-12-29T03:06:07;96130.59;;;8.40;76.25
14689;BME280;7432;48.728;9.154;2022-12-29T03:08:44;96121.44;;;8.38;77.00
14689;BME280;7432;48.728;9.154;2022-12-29T03:11:14;96108.31;;;8.41;75.81
14689;BME280;7432;48.728;9.154;2022-12-29T03:14:02;96101.75;;;8.38;76.23
14689;BME280;7432;48.728;9.154;2022-12-29T03:16:52;96117.13;;;8.38;76.48
14689;BME280;7432;48.728;9.154;2022-12-29T03:19:23;96112.78;;;8.30;76.68
14689;BME280;7432;48.728;9.154;2022-12-29T03:21:55;96097.72;;;8.36;75.97
14689;BME280;7432;48.728;9.154;2022-12-29T03:24:42;96100.25;;;8.27;76.80
14689;BME280;7432;48.728;9.154;2022-12-29T03:27:13;96100.72;;;8.31;76.59
14689;BME280;7432;48.728;9.154;2022-12-29T03:29:45;96098.97;;;8.31;76.47
14689;BME280;7432;48.728;9.154;2022-12-29T03:32:17;96091.16;;;8.33;76.78
14689;BME280;7432;48.728;9.154;2022-12-29T03:34:46;96089.84;;;8.37;75.95
14689;BME280;7432;48.728;9.154;2022-12-29T03:37:17;96097.75;;;8.44;76.00
14689;BME280;7432;48.728;9.154;2022-12-29T03:39:44;96102.72;;;8.45;76.81
14689;BME280;7432;48.728;9.154;2022-12-29T03:42:13;96086.38;;;8.54;76.63
14689;BME280;7432;48.728;9.154;2022-12-29T03:44:42;96087.53;;;8.68;75.62
14689;BME280;7432;48.728;9.154;2022-12-29T03:47:10;96079.84;;;8.76;75.71
14689;BME280;7432;48.728;9.154;2022-12-29T03:49:36;96070.22;;;8.86;75.25
14689;BME280;7432;48.728;9.154;2022-12-29T03:52:04;96073.91;;;8.83;75.75
14689;BME280;7432;48.728;9.154;2022-12-29T03:54:31;96077.75;;;8.79;75.52
14689;BME280;7432;48.728;9.154;2022-12-29T03:56:58;96077.91;;;8.78;75.24
14689;BME280;7432;48.728;9.154;2022-12-29T03:59:24;96064.75;;;8.73;75.86
14689;BME280;7432;48.728;9.154;2022-12-29T04:01:50;96064.44;;;8.68;76.20
14689;BME280;7432;48.728;9.154;2022-12-29T04:04:17;96067.94;;;8.67;76.03
14689;BME280;7432;48.728;9.154;2022-12-29T04:06:43;96081.59;;;8.67;76.22
14689;BME280;7432;48.728;9.154;2022-12-29T04:09:11;96076.75;;;8.64;76.85
14689;BME280;7432;48.728;9.154;2022-12-29T04:11:37;96075.31;;;8.62;76.88
14689;BME280;7432;48.728;9.154;2022-12-29T04:14:03;96069.22;;;8.55;77.14
14689;BME280;7432;48.728;9.154;2022-12-29T04:16:30;96070.47;;;8.51;77.46
14689;BME280;7432;48.728;9.154;2022-12-29T04:18:56;96073.34;;;8.40;78.28
14689;BME280;7432;48.728;9.154;2022-12-29T04:21:23;96084.59;;;8.39;79.07
14689;BME280;7432;48.728;9.154;2022-12-29T04:23:49;96094.19;;;8.45;78.89
14689;BME280;7432;48.728;9.154;2022-12-29T04:26:17;96103.00;;;8.42;78.29
14689;BME280;7432;48.728;9.154;2022-12-29T04:28:43;96111.53;;;8.43;79.21
14689;BME280;7432;48.728;9.154;2022-12-29T04:31:09;96101.91;;;8.45;79.98
14689;BME280;7432;48.728;9.154;2022-12-29T04:33:36;96114.44;;;8.56;78.74
14689;BME280;7432;48.728;9.154;2022-12-29T04:36:03;96092.97;;;8.73;78.78
14689;BME280;7432;48.728;9.154;2022-12-29T04:38:29;96085.78;;;8.84;78.64
14689;BME280;7432;48.728;9.154;2022-12-29T04:40:59;96081.47;;;8.85;77.96
14689;BME280;7432;48.728;9.154;2022-12-29T04:43:27;96086.75;;;8.91;77.81
14689;BME280;7432;48.728;9.154;2022-12-29T04:45:54;96079.84;;;8.92;78.40
14689;BME280;7432;48.728;9.154;2022-12-29T04:48:21;96081.16;;;8.96;78.60
14689;BME280;7432;48.728;9.154;2022-12-29T04:50:48;96085.47;;;8.96;79.03
14689;BME280;7432;48.728;9.154;2022-12-29T04:53:15;96095.44;;;8.90;78.85
14689;BME280;7432;48.728;9.154;2022-12-29T04:55:41;96094.31;;;8.93;79.00
14689;BME280;7432;48.728;9.154;2022-12-29T04:58:08;96086.25;;;8.88;79.22
14689;BME280;7432;48.728;9.154;2022-12-29T05:00:36;96099.09;;;8.88;79.55
14689;BME280;7432;48.728;9.154;2022-12-29T05:03:02;96092.03;;;8.82;79.32
14689;BME280;7432;48.728;9.154;2022-12-29T05:05:28;96109.03;;;8.91;79.54
14689;BME280;7432;48.728;9.154;2022-12-29T05:07:55;96105.53;;;8.92;79.45
14689;BME280;7432;48.728;9.154;2022-12-29T05:10:21;96099.25;;;8.94;79.35
14689;BME280;7432;48.728;9.154;2022-12-29T05:12:48;96108.41;;;8.97;79.43
14689;BME280;7432;48.728;9.154;2022-12-29T05:15:14;96105.84;;;9.05;79.28
14689;BME280;7432;48.728;9.154;2022-12-29T05:17:42;96103.13;;;8.90;79.92
14689;BME280;7432;48.728;9.154;2022-12-29T05:20:09;96099.56;;;8.91;79.12
14689;BME280;7432;48.728;9.154;2022-12-29T05:22:36;96097.81;;;8.84;79.34
14689;BME280;7432;48.728;9.154;2022-12-29T05:25:03;96098.31;;;8.79;79.69
14689;BME280;7432;48.728;9.154;2022-12-29T05:27:29;96082.06;;;8.71;80.25
14689;BME280;7432;48.728;9.154;2022-12-29T05:29:55;96084.97;;;8.76;80.53
14689;BME280;7432;48.728;9.154;2022-12-29T05:32:22;96083.53;;;8.73;80.75
14689;BME280;7432;48.728;9.154;2022-12-29T05:34:50;96087.84;;;8.65;80.59
14689;BME280;7432;48.728;9.154;2022-12-29T05:37:16;96087.69;;;8.74;81.07
14689;BME280;7432;48.728;9.154;2022-12-29T05:39:42;96097.63;;;8.77;80.75
14689;BME280;7432;48.728;9.154;2022-12-29T05:42:09;96093.00;;;8.81;80.04
14689;BME280;7432;48.728;9.154;2022-12-29T05:44:35;96096.19;;;8.91;80.10
14689;BME280;7432;48.728;9.154;2022-12-29T05:47:02;96081.47;;;8.93;79.58
14689;BME280;7432;48.728;9.154;2022-12-29T05:49:28;96086.41;;;8.94;79.50
14689;BME280;7432;48.728;9.154;2022-12-29T05:51:56;96078.41;;;8.89;79.29
14689;BME280;7432;48.728;9.154;2022-12-29T05:54:22;96087.22;;;8.95;79.26
14689;BME280;7432;48.728;9.154;2022-12-29T05:56:48;96089.81;;;8.95;79.17
14689;BME280;7432;48.728;9.154;2022-12-29T05:59:15;96084.97;;;8.92;79.38
14689;BME280;7432;48.728;9.154;2022-12-29T06:01:41;96091.56;;;8.94;78.30
14689;BME280;7432;48.728;9.154;2022-12-29T06:04:08;96075.84;;;9.06;77.40
14689;BME280;7432;48.728;9.154;2022-12-29T06:06:34;96078.41;;;9.06;77.48
14689;BME280;7432;48.728;9.154;2022-12-29T06:09:02;96077.78;;;9.04;77.75
14689;BME280;7432;48.728;9.154;2022-12-29T06:11:28;96059.94;;;9.10;77.01
14689;BME280;7432;48.728;9.154;2022-12-29T06:13:54;96072.44;;;9.13;76.73
14689;BME280;7432;48.728;9.154;2022-12-29T06:16:21;96059.59;;;9.13;76.43
14689;BME280;7432;48.728;9.154;2022-12-29T06:18:47;96061.22;;;9.06;77.54
14689;BME280;7432;48.728;9.154;2022-12-29T06:21:14;96058.03;;;9.12;76.93
14689;BME280;7432;48.728;9.154;2022-12-29T06:23:41;96063.00;;;9.06;77.15
14689;BME280;7432;48.728;9.154;2022-12-29T06:26:08;96072.47;;;8.97;77.35
14689;BME280;7432;48.728;9.154;2022-12-29T06:28:35;96073.59;;;8.94;76.68
14689;BME280;7432;48.728;9.154;2022-12-29T06:31:01;96058.50;;;8.91;76.45
14689;BME280;7432;48.728;9.154;2022-12-29T06:33:28;96071.66;;;8.88;76.16
14689;BME280;7432;48.728;9.154;2022-12-29T06:35:54;96077.09;;;8.93;76.69
14689;BME280;7432;48.728;9.154;2022-12-29T06:38:21;96074.88;;;8.99;76.26
14689;BME280;7432;48.728;9.154;2022-12-29T06:40:47;96077.44;;;9.07;75.25
14689;BME280;7432;48.728;9.154;2022-12-29T06:43:15;96075.50;;;9.01;75.05
14689;BME280;7432;48.728;9.154;2022-12-29T06:45:41;96081.59;;;9.08;74.74
14689;BME280;7432;48.728;9.154;2022-12-29T06:48:07;96083.03;;;9.10;74.70
14689;BME280;7432;48.728;9.154;2022-12-29T06:50:34;96082.09;;;9.03;75.39
14689;BME280;7432;48.728;9.154;2022-12-29T06:53:00;96076.78;;;8.97;75.02
14689;BME280;7432;48.728;9.154;2022-12-29T06:55:26;96070.69;;;8.98;74.87
14689;BME280;7432;48.728;9.154;2022-12-29T06:57:54;96059.63;;;8.97;74.58
14689;BME280;7432;48.728;9.154;2022-12-29T07:00:22;96061.22;;;8.90;74.84
14689;BME280;7432;48.728;9.154;2022-12-29T07:02:48;96066.50;;;8.88;74.37
14689;BME280;7432;48.728;9.154;2022-12-29T07:05:15;96078.72;;;8.86;75.03
14689;BME280;7432;48.728;9.154;2022-12-29T07:07:41;96068.94;;;8.82;75.64
14689;BME280;7432;48.728;9.154;2022-12-29T07:10:08;96075.97;;;8.80;75.77
14689;BME280;7432;48.728;9.154;2022-12-29T07:12:34;96064.94;;;8.79;76.56
14689;BME280;7432;48.728;9.154;2022-12-29T07:15:00;96067.31;;;8.73;75.58
14689;BME280;7432;48.728;9.154;2022-12-29T07:17:28;96069.22;;;8.63;75.86
14689;BME280;7432;48.728;9.154;2022-12-29T07:19:55;96070.00;;;8.55;76.59
14689;BME280;7432;48.728;9.154;2022-12-29T07:22:21;96072.56;;;8.47;76.64
14689;BME280;7432;48.728;9.154;2022-12-29T07:24:47;96070.78;;;8.48;76.79
14689;BME280;7432;48.728;9.154;2022-12-29T07:27:14;96068.72;;;8.51;77.12
14689;BME280;7432;48.728;9.154;2022-12-29T07:29:40;96072.41;;;8.41;76.52
14689;BME280;7432;48.728;9.154;2022-12-29T07:32:06;96075.59;;;8.34;77.47
14689;BME280;7432;48.728;9.154;2022-12-29T07:34:34;96088.09;;;8.38;78.03
14689;BME280;7432;48.728;9.154;2022-12-29T07:37:00;96085.34;;;8.31;78.46
14689;BME280;7432;48.728;9.154;2022-12-29T07:39:27;96081.19;;;8.30;78.60
14689;BME280;7432;48.728;9.154;2022-12-29T07:41:53;96083.28;;;8.43;77.91
14689;BME280;7432;48.728;9.154;2022-12-29T07:44:20;96076.53;;;8.42;77.81
14689;BME280;7432;48.728;9.154;2022-12-29T07:46:46;96077.53;;;8.49;78.35
14689;BME280;7432;48.728;9.154;2022-12-29T07:49:12;96075.94;;;8.56;77.44
14689;BME280;7432;48.728;9.154;2022-12-29T07:51:40;96068.09;;;8.57;77.92
14689;BME280;7432;48.728;9.154;2022-12-29T07:54:06;96081.09;;;8.72;77.51
14689;BME280;7432;48.728;9.154;2022-12-29T07:56:33;96081.09;;;8.72;77.63
14689;BME280;7432;48.728;9.154;2022-12-29T07:58:59;96078.06;;;8.76;77.13
14689;BME280;7432;48.728;9.154;2022-12-29T08:01:25;96074.53;;;8.85;77.48
14689;BME280;7432;48.728;9.154;2022-12-29T08:03:52;96079.66;;;8.85;77.24
14689;BME280;7432;48.728;9.154;2022-12-29T08:06:18;96078.22;;;8.91;77.24
14689;BME280;7432;48.728;9.154;2022-12-29T08:08:46;96081.78;;;9.06;77.46
14689;BME280;7432;48.728;9.154;2022-12-29T08:11:12;96089.63;;;9.13;76.32
14689;BME280;7432;48.728;9.154;2022-12-29T08:13:39;96084.81;;;9.26;75.80
14689;BME280;7432;48.728;9.154;2022-12-29T08:16:05;96094.78;;;9.37;75.26
14689;BME280;7432;48.728;9.154;2022-12-29T08:18:32;96102.47;;;9.37;76.16
14689;BME280;7432;48.728;9.154;2022-12-29T08:21:01;96105.03;;;9.45;76.09
14689;BME280;7432;48.728;9.154;2022-12-29T08:23:27;96101.66;;;9.52;74.88
14689;BME280;7432;48.728;9.154;2022-12-29T08:25:58;96104.38;;;9.51;74.86
14689;BME280;7432;48.728;9.154;2022-12-29T08:28:24;96117.06;;;9.61;75.03
14689;BME280;7432;48.728;9.154;2022-12-29T08:30:51;96101.63;;;9.61;75.00
14689;BME280;7432;48.728;9.154;2022-12-29T08:33:18;96105.66;;;9.63;75.37
14689;BME280;7432;48.728;9.154;2022-12-29T08:35:45;96103.59;;;9.59;75.61
14689;BME280;7432;48.728;9.154;2022-12-29T08:38:11;96098.56;;;9.65;74.82
14689;BME280;7432;48.728;9.154;2022-12-29T08:40:38;96096.78;;;9.74;74.66
14689;BME280;7432;48.728;9.154;2022-12-29T08:43:06;96096.97;;;9.72;74.42
14689;BME280;7432;48.728;9.154;2022-12-29T08:45:32;96087.16;;;9.68;74.80
14689;BME280;7432;48.728;9.154;2022-12-29T08:47:59;96097.25;;;9.77;74.14
14689;BME280;7432;48.728;9.154;2022-12-29T08:50:25;96096.75;;;9.90;73.89
14689;BME280;7432;48.728;9.154;2022-12-29T08:52:51;96088.72;;;9.85;74.13
14689;BME280;7432;48.728;9.154;2022-12-29T08:55:18;96085.66;;;9.89;73.68
14689;BME280;7432;48.728;9.154;2022-12-29T08:57:44;96091.59;;;9.90;73.65
14689;BME280;7432;48.728;9.154;2022-12-29T09:00:13;96095.16;;;9.89;74.22
14689;BME280;7432;48.728;9.154;2022-12-29T09:02:40;96101.06;;;9.89;73.65
14689;BME280;7432;48.728;9.154;2022-12-29T09:05:07;96109.94;;;9.79;73.81
14689;BME280;7432;48.728;9.154;2022-12-29T09:07:34;96103.88;;;9.72;74.53
14689;BME280;7432;48.728;9.154;2022-12-29T09:10:01;96115.41;;;9.76;74.43
14689;BME280;7432;48.728;9.154;2022-12-29T09:12:28;96118.13;;;9.90;73.61
14689;BME280;7432;48.728;9.154;2022-12-29T09:14:54;96121.28;;;10.00;73.66
14689;BME280;7432;48.728;9.154;2022-12-29T09:17:22;96128.22;;;10.08;73.31
14689;BME280;7432;48.728;9.154;2022-12-29T09:20:08;96122.59;;;10.13;72.73
14689;BME280;7432;48.728;9.154;2022-12-29T09:22:35;96136.03;;;10.31;72.49
14689;BME280;7432;48.728;9.154;2022-12-29T09:25:01;96133.78;;;10.28;72.65
14689;BME280;7432;48.728;9.154;2022-12-29T09:27:28;96131.19;;;10.28;72.20
14689;BME280;7432;48.728;9.154;2022-12-29T09:29:55;96140.03;;;10.33;72.04
14689;BME280;7432;48.728;9.154;2022-12-29T09:32:23;96145.19;;;10.33;72.32
14689;BME280;7432;48.728;9.154;2022-12-29T09:34:49;96142.72;;;10.48;71.84
14689;BME280;7432;48.728;9.154;2022-12-29T09:37:16;96158.16;;;10.48;71.82
14689;BME280;7432;48.728;9.154;2022-12-29T09:39:42;96152.00;;;10.57;71.59
14689;BME280;7432;48.728;9.154;2022-12-29T09:42:14;96157.59;;;10.60;71.73
14689;BME280;7432;48.728;9.154;2022-12-29T09:44:50;96152.88;;;10.72;70.71
14689;BME280;7432;48.728;9.154;2022-12-29T09:47:20;96160.00;;;10.70;70.98
14689;BME280;7432;48.728;9.154;2022-12-29T09:49:51;96153.56;;;10.66;70.98
14689;BME280;7432;48.728;9.154;2022-12-29T09:52:21;96143.34;;;10.81;70.39
14689;BME280;7432;48.728;9.154;2022-12-29T09:54:54;96152.63;;;10.90;70.59
14689;BME280;7432;48.728;9.154;2022-12-29T09:57:25;96139.13;;;11.10;69.91
14689;BME280;7432;48.728;9.154;2022-12-29T09:59:56;96149.09;;;11.13;69.90
14689;BME280;7432;48.728;9.154;2022-12-29T10:02:37;96145.03;;;11.19;69.88
14689;BME280;7432;48.728;9.154;2022-12-29T10:05:20;96144.41;;;11.17;70.24
14689;BME280;7432;48.728;9.154;2022-12-29T10:08:00;96142.09;;;11.22;69.45
14689;BME280;7432;48.728;9.154;2022-12-29T10:10:35;96142.38;;;11.27;69.08
14689;BME280;7432;48.728;9.154;2022-12-29T10:13:18;96142.59;;;11.17;69.96
14689;BME280;7432;48.728;9.154;2022-12-29T10:15:54;96143.19;;;11.05;70.45
14689;BME280;7432;48.728;9.154;2022-12-29T10:18:36;96151.84;;;10.89;70.91
14689;BME280;7432;48.728;9.154;2022-12-29T10:21:08;96148.25;;;10.90;71.35
14689;BME280;7432;48.728;9.154;2022-12-29T10:23:41;96149.34;;;10.96;71.12
14689;BME280;7432;48.728;9.154;2022-12-29T10:26:14;96144.69;;;10.99;71.05
14689;BME280;7432;48.728;9.154;2022-12-29T10:28:44;96137.56;;;11.01;71.31
14689;BME280;7432;48.728;9.154;2022-12-29T10:31:16;96133.97;;;11.10;71.32
14689;BME280;7432;48.728;9.154;2022-12-29T10:33:49;96134.53;;;11.20;71.31
14689;BME280;7432;48.728;9.154;2022-12-29T10:36:24;96143.81;;;11.29;71.26
14689;BME280;7432;48.728;9.154;2022-12-29T10:39:02;96137.91;;;11.44;71.24
14689;BME280;7432;48.728;9.154;2022-12-29T10:41:36;96136.97;;;11.59;70.60
14689;BME280;7432;48.728;9.154;2022-12-29T10:44:04;96133.06;;;11.63;70.27
14689;BME280;7432;48.728;9.154;2022-12-29T10:46:33;96132.84;;;11.73;70.11
14689;BME280;7432;48.728;9.154;2022-12-29T10:49:02;96132.25;;;12.00;68.91
14689;BME280;7432;48.728;9.154;2022-12-29T10:51:32;96136.97;;;12.26;68.12
14689;BME280;7432;48.728;9.154;2022-12-29T10:54:04;96126.13;;;12.16;68.85
14689;BME280;7432;48.728;9.154;2022-12-29T10:56:34;96127.69;;;11.87;69.29
14689;BME280;7432;48.728;9.154;2022-12-29T10:59:06;96134.59;;;11.72;70.17
14689;BME280;7432;48.728;9.154;2022-12-29T11:01:38;96143.19;;;11.65;71.21
14689;BME280;7432;48.728;9.154;2022-12-29T11:04:24;96133.63;;;11.73;69.66
14689;BME280;7432;48.728;9.154;2022-12-29T11:06:54;96142.66;;;11.92;69.91
14689;BME280;7432;48.728;9.154;2022-12-29T11:09:25;96143.25;;;11.79;70.18
14689;BME280;7432;48.728;9.154;2022-12-29T11:11:53;96139.06;;;11.78;69.21
14689;BME280;7432;48.728;9.154;2022-12-29T11:14:23;96143.97;;;11.73;69.76
14689;BME280;7432;48.728;9.154;2022-12-29T11:16:56;96152.22;;;11.69;70.07
14689;BME280;7432;48.728;9.154;2022-12-29T11:19:25;96146.13;;;11.62;70.09
14689;BME280;7432;48.728;9.154;2022-12-29T11:21:54;96147.06;;;11.83;69.31
14689;BME280;7432;48.728;9.154;2022-12-29T11:24:23;96151.72;;;12.03;69.38
14689;BME280;7432;48.728;9.154;2022-12-29T11:26:51;96156.38;;;12.07;69.82
14689;BME280;7432;48.728;9.154;2022-12-29T11:29:27;96153.06;;;11.99;70.24
14689;BME280;7432;48.728;9.154;2022-12-29T11:31:55;96156.53;;;11.91;70.44
14689;BME280;7432;48.728;9.154;2022-12-29T11:34:25;96156.44;;;11.84;70.23
14689;BME280;7432;48.728;9.154;2022-12-29T11:37:00;96161.31;;;11.79;72.22
14689;BME280;7432;48.728;9.154;2022-12-29T11:39:31;96163.38;;;11.61;73.82
14689;BME280;7432;48.728;9.154;2022-12-29T11:41:59;96159.03;;;11.62;73.79
14689;BME280;7432;48.728;9.154;2022-12-29T11:44:31;96156.44;;;11.62;75.43
14689;BME280;7432;48.728;9.154;2022-12-29T11:47:01;96154.91;;;11.75;73.78
14689;BME280;7432;48.728;9.154;2022-12-29T11:49:28;96158.03;;;11.85;72.99
14689;BME280;7432;48.728;9.154;2022-12-29T11:51:55;96156.44;;;11.84;73.69
14689;BME280;7432;48.728;9.154;2022-12-29T11:54:24;96160.19;;;11.97;72.53
14689;BME280;7432;48.728;9.154;2022-12-29T11:56:52;96157.66;;;11.88;72.40
14689;BME280;7432;48.728;9.154;2022-12-29T11:59:40;96147.88;;;11.84;72.57
14689;BME280;7432;48.728;9.154;2022-12-29T12:02:26;96146.88;;;11.70;72.80
14689;BME280;7432;48.728;9.154;2022-12-29T12:05:04;96132.03;;;11.72;72.42
14689;BME280;7432;48.728;9.154;2022-12-29T12:07:39;96132.88;;;11.65;72.49
14689;BME280;7432;48.728;9.154;2022-12-29T12:10:12;96128.59;;;11.57;73.32
14689;BME280;7432;48.728;9.154;2022-12-29T12:12:44;96139.00;;;11.49;73.85
14689;BME280;7432;48.728;9.154;2022-12-29T12:15:16;96127.34;;;11.53;73.95
14689;BME280;7432;48.728;9.154;2022-12-29T12:17:51;96135.59;;;11.49;73.97
14689;BME280;7432;48.728;9.154;2022-12-29T12:20:21;96135.78;;;11.47;74.04
14689;BME280;7432;48.728;9.154;2022-12-29T12:22:58;96135.94;;;11.46;74.34
14689;BME280;7432;48.728;9.154;2022-12-29T12:25:31;96131.78;;;11.45;74.96
14689;BME280;7432;48.728;9.154;2022-12-29T12:28:05;96136.47;;;11.41;75.39
14689;BME280;7432;48.728;9.154;2022-12-29T12:30:39;96137.41;;;11.63;75.36
14689;BME280;7432;48.728;9.154;2022-12-29T12:33:18;96137.56;;;11.61;75.77
14689;BME280;7432;48.728;9.154;2022-12-29T12:35:52;96126.19;;;11.56;76.34
14689;BME280;7432;48.728;9.154;2022-12-29T12:38:26;96140.16;;;11.47;78.46
14689;BME280;7432;48.728;9.154;2022-12-29T12:41:01;96131.19;;;11.20;80.68
14689;BME280;7432;48.728;9.154;2022-12-29T12:43:37;96138.59;;;11.15;81.96
14689;BME280;7432;48.728;9.154;2022-12-29T12:46:29;96122.28;;;11.00;82.49
14689;BME280;7432;48.728;9.154;2022-12-29T12:49:21;96111.88;;;10.93;83.36
14689;BME280;7432;48.728;9.154;2022-12-29T12:52:01;96119.44;;;10.95;83.93
14689;BME280;7432;48.728;9.154;2022-12-29T12:54:45;96116.22;;;10.93;84.03
14689;BME280;7432;48.728;9.154;2022-12-29T12:57:22;96116.13;;;11.09;83.46
14689;BME280;7432;48.728;9.154;2022-12-29T12:59:56;96120.22;;;11.18;83.23
14689;BME280;7432;48.728;9.154;2022-12-29T13:02:37;96091.47;;;11.29;82.83
14689;BME280;7432;48.728;9.154;2022-12-29T13:05:22;96088.59;;;11.24;83.03
14689;BME280;7432;48.728;9.154;2022-12-29T13:07:57;96094.72;;;11.23;83.23
14689;BME280;7432;48.728;9.154;2022-12-29T13:10:39;96085.69;;;11.27;82.59
14689;BME280;7432;48.728;9.154;2022-12-29T13:13:36;96096.06;;;11.19;82.02
14689;BME280;7432;48.728;9.154;2022-12-29T13:16:12;96096.00;;;11.04;83.04
14689;BME280;7432;48.728;9.154;2022-12-29T13:18:50;96092.75;;;11.10;82.74
14689;BME280;7432;48.728;9.154;2022-12-29T13:21:27;96103.84;;;11.11;82.88
14689;BME280;7432;48.728;9.154;2022-12-29T13:24:02;96096.69;;;11.21;82.78
14689;BME280;7432;48.728;9.154;2022-12-29T13:26:35;96107.69;;;11.15;82.38
14689;BME280;7432;48.728;9.154;2022-12-29T13:29:15;96106.91;;;11.14;82.14
14689;BME280;7432;48.728;9.154;2022-12-29T13:31:49;96105.75;;;11.17;81.20
14689;BME280;7432;48.728;9.154;2022-12-29T13:34:27;96099.84;;;11.08;81.98
14689;BME280;7432;48.728;9.154;2022-12-29T13:37:00;96095.19;;;11.04;81.80